createdAt,value
2022-12-03T00:01:14.284Z,60.90
2022-12-03T00:03:41.140Z,60.90
2022-12-03T00:06:07.914Z,60.90
2022-12-03T00:08:34.534Z,60.80
2022-12-03T00:11:01.172Z,60.80
2022-12-03T00:13:27.740Z,60.20
2022-12-03T00:15:54.410Z,60.80
2022-12-03T00:18:21.125Z,60.80
2022-12-03T00:20:47.732Z,60.60
2022-12-03T00:23:14.327Z,60.60
2022-12-03T00:25:40.923Z,60.70
2022-12-03T00:28:07.586Z,60.60
2022-12-03T00:30:34.275Z,60.60
2022-12-03T00:33:02.011Z,60.60
2022-12-03T00:35:28.686Z,60.60
2022-12-03T00:37:55.929Z,60.60
2022-12-03T00:40:22.503Z,60.50
2022-12-03T00:42:49.118Z,60.50
2022-12-03T00:45:15.859Z,60.40
2022-12-03T00:47:42.495Z,60.40
2022-12-03T00:50:10.671Z,60.40
2022-12-03T00:52:37.281Z,60.40
2022-12-03T00:55:04.154Z,60.40
2022-12-03T00:57:30.732Z,60.40
2022-12-03T00:59:57.307Z,60.40
2022-12-03T01:02:24.069Z,60.40
2022-12-03T01:04:51.017Z,60.30
2022-12-03T01:07:17.993Z,60.30
2022-12-03T01:09:44.599Z,60.30
2022-12-03T01:12:11.912Z,60.30
2022-12-03T01:14:38.546Z,60.30
2022-12-03T01:17:05.276Z,60.20
2022-12-03T01:19:31.992Z,60.20
2022-12-03T01:21:58.644Z,59.50
2022-12-03T01:24:25.324Z,60.20
2022-12-03T01:26:51.919Z,60.30
2022-12-03T01:29:18.573Z,60.20
2022-12-03T01:32:04.052Z,60.20
2022-12-03T01:34:30.714Z,60.20
2022-12-03T01:36:57.581Z,60.10
2022-12-03T01:39:24.428Z,60.10
2022-12-03T01:41:52.543Z,59.50
2022-12-03T01:44:24.595Z,60.10
2022-12-03T01:46:53.965Z,60.00
2022-12-03T01:49:24.775Z,60.10
2022-12-03T01:51:53.273Z,60.10
2022-12-03T01:54:28.433Z,60.00
2022-12-03T01:56:55.638Z,60.00
2022-12-03T01:59:29.570Z,60.70
2022-12-03T02:01:56.227Z,60.00
2022-12-03T02:04:23.775Z,60.00
2022-12-03T02:06:50.638Z,59.90
2022-12-03T02:09:17.262Z,60.00
2022-12-03T02:11:48.752Z,60.00
2022-12-03T02:14:21.576Z,60.00
2022-12-03T02:16:48.661Z,60.00
2022-12-03T02:19:24.799Z,60.00
2022-12-03T02:22:14.872Z,59.90
2022-12-03T02:24:59.202Z,59.90
2022-12-03T02:27:28.093Z,59.90
2022-12-03T02:29:55.060Z,59.90
2022-12-03T02:32:23.362Z,59.90
2022-12-03T02:34:50.823Z,59.90
2022-12-03T02:37:23.760Z,59.90
2022-12-03T02:39:54.087Z,59.90
2022-12-03T02:42:36.543Z,59.90
2022-12-03T02:45:10.934Z,59.90
2022-12-03T02:47:51.193Z,59.90
2022-12-03T02:50:21.319Z,60.00
2022-12-03T02:52:48.533Z,59.40
2022-12-03T02:55:17.077Z,60.00
2022-12-03T02:57:46.763Z,59.90
2022-12-03T03:00:14.231Z,59.80
2022-12-03T03:02:41.809Z,59.80
2022-12-03T03:05:11.722Z,59.90
2022-12-03T03:07:39.498Z,60.00
2022-12-03T03:10:08.968Z,59.90
2022-12-03T03:12:39.184Z,59.90
2022-12-03T03:15:07.303Z,59.90
2022-12-03T03:17:34.251Z,59.90
2022-12-03T03:20:01.885Z,59.90
2022-12-03T03:22:33.629Z,59.90
2022-12-03T03:25:00.336Z,59.90
2022-12-03T03:27:28.214Z,59.90
2022-12-03T03:29:57.047Z,59.90
2022-12-03T03:32:24.359Z,59.90
2022-12-03T03:34:51.308Z,59.90
2022-12-03T03:37:18.117Z,59.90
2022-12-03T03:39:44.819Z,59.90
2022-12-03T03:42:11.749Z,59.80
2022-12-03T03:44:38.764Z,59.80
2022-12-03T03:47:06.059Z,59.80
2022-12-03T03:49:33.267Z,59.80
2022-12-03T03:51:59.935Z,59.30
2022-12-03T03:54:26.883Z,59.90
2022-12-03T03:56:53.600Z,59.80
2022-12-03T03:59:20.203Z,59.80
2022-12-03T04:01:46.906Z,59.90
2022-12-03T04:04:20.583Z,59.70
2022-12-03T04:06:48.040Z,59.80
2022-12-03T04:09:14.832Z,59.80
2022-12-03T04:12:00.484Z,59.80
2022-12-03T04:14:27.080Z,59.80
2022-12-03T04:16:53.727Z,59.70
2022-12-03T04:19:20.327Z,59.70
2022-12-03T04:22:05.660Z,59.60
2022-12-03T04:24:32.246Z,59.60
2022-12-03T04:27:17.315Z,59.60
2022-12-03T04:29:43.898Z,59.60
2022-12-03T04:32:29.306Z,59.60
2022-12-03T04:35:14.581Z,59.60
2022-12-03T04:37:41.182Z,59.60
2022-12-03T04:40:28.369Z,59.60
2022-12-03T04:42:54.963Z,59.60
2022-12-03T04:45:21.576Z,59.50
2022-12-03T04:47:48.163Z,59.50
2022-12-03T04:50:14.860Z,59.50
2022-12-03T04:52:41.454Z,59.50
2022-12-03T04:55:08.441Z,59.50
2022-12-03T04:57:35.037Z,59.50
2022-12-03T05:00:01.984Z,59.50
2022-12-03T05:02:28.644Z,59.50
2022-12-03T05:04:55.499Z,59.50
2022-12-03T05:07:22.346Z,59.30
2022-12-03T05:09:48.926Z,59.30
2022-12-03T05:12:15.496Z,59.40
2022-12-03T05:14:42.078Z,59.30
2022-12-03T05:17:08.714Z,59.40
2022-12-03T05:19:53.873Z,59.40
2022-12-03T05:22:20.466Z,59.30
2022-12-03T05:24:47.032Z,59.30
2022-12-03T05:27:15.009Z,59.30
2022-12-03T05:29:43.238Z,59.30
2022-12-03T05:32:09.866Z,59.30
2022-12-03T05:34:36.458Z,59.30
2022-12-03T05:37:03.168Z,59.30
2022-12-03T05:39:29.777Z,59.30
2022-12-03T05:42:34.779Z,59.30
2022-12-03T05:45:02.145Z,59.30
2022-12-03T05:47:28.716Z,59.30
2022-12-03T05:49:55.311Z,59.20
2022-12-03T05:52:21.880Z,59.30
2022-12-03T05:54:48.549Z,59.20
2022-12-03T05:57:15.144Z,59.20
2022-12-03T05:59:41.740Z,59.20
2022-12-03T06:02:08.448Z,59.20
2022-12-03T06:04:35.154Z,59.20
2022-12-03T06:07:01.766Z,59.20
2022-12-03T06:09:28.368Z,59.10
2022-12-03T06:11:55.045Z,59.10
2022-12-03T06:14:21.709Z,59.10
2022-12-03T06:16:48.304Z,59.10
2022-12-03T06:19:14.914Z,59.20
2022-12-03T06:21:41.492Z,59.10
2022-12-03T06:24:08.194Z,59.10
2022-12-03T06:26:34.800Z,59.10
2022-12-03T06:29:01.402Z,59.20
2022-12-03T06:31:28.055Z,59.10
2022-12-03T06:33:54.720Z,59.10
2022-12-03T06:36:23.204Z,59.10
2022-12-03T06:38:50.095Z,59.10
2022-12-03T06:41:16.768Z,59.00
2022-12-03T06:43:43.341Z,59.00
2022-12-03T06:46:09.997Z,59.00
2022-12-03T06:48:36.758Z,59.00
2022-12-03T06:51:03.463Z,59.00
2022-12-03T06:53:30.057Z,58.50
2022-12-03T06:55:56.628Z,59.00
2022-12-03T06:58:23.236Z,59.20
2022-12-03T07:00:49.854Z,59.20
2022-12-03T07:03:16.523Z,59.20
2022-12-03T07:05:43.183Z,59.20
2022-12-03T07:08:09.862Z,59.20
2022-12-03T07:10:36.503Z,59.10
2022-12-03T07:13:03.131Z,59.10
2022-12-03T07:15:29.727Z,59.10
2022-12-03T07:17:56.382Z,59.10
2022-12-03T07:20:22.973Z,59.10
2022-12-03T07:22:49.640Z,59.10
2022-12-03T07:25:22.647Z,59.60
2022-12-03T07:27:49.962Z,59.00
2022-12-03T07:30:16.762Z,59.00
2022-12-03T07:32:43.350Z,59.00
2022-12-03T07:35:10.066Z,59.00
2022-12-03T07:37:37.119Z,59.00
2022-12-03T07:40:05.402Z,59.00
2022-12-03T07:42:32.078Z,59.00
2022-12-03T07:44:58.658Z,59.00
2022-12-03T07:47:25.255Z,59.00
2022-12-03T07:49:51.872Z,59.00
2022-12-03T07:52:18.478Z,58.50
2022-12-03T07:54:45.192Z,59.00
2022-12-03T07:57:11.792Z,59.00
2022-12-03T07:59:38.412Z,59.00
2022-12-03T08:02:05.127Z,58.90
2022-12-03T08:04:31.756Z,58.90
2022-12-03T08:06:58.368Z,58.90
2022-12-03T08:09:25.007Z,58.90
2022-12-03T08:11:52.284Z,58.90
2022-12-03T08:14:20.364Z,58.90
2022-12-03T08:16:48.267Z,58.90
2022-12-03T08:19:17.123Z,58.90
2022-12-03T08:21:44.359Z,58.40
2022-12-03T08:24:17.368Z,59.00
2022-12-03T08:26:45.188Z,58.90
2022-12-03T08:29:14.819Z,58.90
2022-12-03T08:31:42.030Z,58.90
2022-12-03T08:34:39.044Z,58.90
2022-12-03T08:37:16.845Z,59.00
2022-12-03T08:39:52.606Z,58.90
2022-12-03T08:42:41.461Z,59.10
2022-12-03T08:45:30.192Z,59.20
2022-12-03T08:48:05.998Z,59.30
2022-12-03T08:50:39.452Z,59.30
2022-12-03T08:53:31.563Z,59.00
2022-12-03T08:56:13.043Z,59.50
2022-12-03T08:58:43.975Z,59.60
2022-12-03T09:01:13.015Z,59.70
2022-12-03T09:03:51.589Z,59.40
2022-12-03T09:06:18.365Z,59.90
2022-12-03T09:08:44.950Z,59.90
2022-12-03T09:11:11.745Z,59.90
2022-12-03T09:13:38.439Z,60.10
2022-12-03T09:16:05.510Z,60.10
2022-12-03T09:18:32.523Z,60.20
2022-12-03T09:20:59.149Z,59.80
2022-12-03T09:23:25.736Z,60.30
2022-12-03T09:25:52.320Z,60.30
2022-12-03T09:28:18.893Z,60.30
2022-12-03T09:30:45.460Z,59.70
2022-12-03T09:33:12.155Z,60.30
2022-12-03T09:35:38.765Z,60.30
2022-12-03T09:38:05.323Z,60.30
2022-12-03T09:40:31.977Z,60.20
2022-12-03T09:42:58.668Z,60.30
2022-12-03T09:45:25.450Z,60.10
2022-12-03T09:47:52.461Z,60.00
2022-12-03T09:50:26.334Z,59.40
2022-12-03T09:52:55.089Z,60.00
2022-12-03T09:55:24.942Z,60.00
2022-12-03T09:57:53.303Z,59.90
2022-12-03T10:00:23.796Z,59.90
2022-12-03T10:02:52.740Z,60.00
2022-12-03T10:05:21.227Z,60.00
2022-12-03T10:07:49.654Z,60.10
2022-12-03T10:10:25.330Z,60.10
2022-12-03T10:12:52.653Z,60.20
2022-12-03T10:15:22.714Z,60.20
2022-12-03T10:17:52.033Z,60.30
2022-12-03T10:20:21.181Z,60.30
2022-12-03T10:22:50.632Z,60.20
2022-12-03T10:25:20.615Z,60.30
2022-12-03T10:27:59.463Z,60.30
2022-12-03T10:30:28.279Z,60.30
2022-12-03T10:32:57.458Z,60.40
2022-12-03T10:35:36.244Z,60.40
2022-12-03T10:38:06.190Z,60.40
2022-12-03T10:40:35.443Z,60.50
2022-12-03T10:43:23.806Z,60.60
2022-12-03T10:46:01.987Z,60.60
2022-12-03T10:48:30.574Z,60.60
2022-12-03T10:51:14.464Z,60.60
2022-12-03T10:53:41.377Z,60.60
2022-12-03T10:56:12.001Z,60.60
2022-12-03T10:58:40.327Z,60.70
2022-12-03T11:01:16.740Z,60.70
2022-12-03T11:03:44.104Z,60.70
2022-12-03T11:06:24.012Z,60.80
2022-12-03T11:08:57.534Z,60.80
2022-12-03T11:11:30.730Z,60.80
2022-12-03T11:13:59.803Z,60.80
2022-12-03T11:16:41.663Z,60.80
2022-12-03T11:19:18.079Z,60.80
2022-12-03T11:22:03.444Z,60.90
2022-12-03T11:24:31.835Z,60.90
2022-12-03T11:26:58.368Z,60.90
2022-12-03T11:29:58.775Z,60.30
2022-12-03T11:32:43.304Z,60.90
2022-12-03T11:35:34.605Z,60.90
2022-12-03T11:38:37.764Z,61.30
2022-12-03T11:41:13.593Z,60.90
2022-12-03T11:43:52.044Z,60.90
2022-12-03T11:46:28.553Z,60.90
2022-12-03T11:48:58.433Z,60.90
2022-12-03T11:51:27.238Z,60.90
2022-12-03T11:53:58.604Z,61.00
2022-12-03T11:56:27.461Z,60.90
2022-12-03T11:59:02.250Z,60.90
2022-12-03T12:01:38.603Z,61.00
2022-12-03T12:04:07.206Z,60.90
2022-12-03T12:06:44.437Z,61.00
2022-12-03T12:09:11.218Z,60.90
2022-12-03T12:11:43.460Z,61.00
2022-12-03T12:14:11.994Z,60.90
2022-12-03T12:16:55.223Z,60.60
2022-12-03T12:19:42.073Z,60.40
2022-12-03T12:22:17.658Z,60.10
2022-12-03T12:24:46.878Z,59.90
2022-12-03T12:27:24.118Z,59.90
2022-12-03T12:29:56.529Z,59.90
2022-12-03T12:32:32.390Z,60.00
2022-12-03T12:35:19.591Z,59.90
2022-12-03T12:37:59.780Z,59.90
2022-12-03T12:40:32.241Z,60.00
2022-12-03T12:43:24.820Z,60.00
2022-12-03T12:45:56.581Z,59.90
2022-12-03T12:48:33.750Z,60.00
2022-12-03T12:51:07.697Z,60.10
2022-12-03T12:53:36.288Z,60.20
2022-12-03T12:56:18.980Z,60.20
2022-12-03T12:58:45.818Z,60.30
2022-12-03T13:01:20.887Z,60.50
2022-12-03T13:03:51.055Z,60.50
2022-12-03T13:06:19.011Z,60.50
2022-12-03T13:08:48.565Z,60.70
2022-12-03T13:11:24.328Z,60.70
2022-12-03T13:13:51.746Z,60.70
2022-12-03T13:16:23.162Z,60.80
2022-12-03T13:18:54.523Z,60.90
2022-12-03T13:21:40.955Z,61.00
2022-12-03T13:24:25.952Z,61.00
2022-12-03T13:26:52.617Z,61.00
2022-12-03T13:29:20.805Z,61.00
2022-12-03T13:32:01.623Z,61.00
2022-12-03T13:34:33.244Z,61.00
2022-12-03T13:37:01.208Z,61.00
2022-12-03T13:39:34.300Z,61.00
2022-12-03T13:42:35.270Z,61.00
2022-12-03T13:45:02.466Z,61.10
2022-12-03T13:47:29.105Z,61.00
2022-12-03T13:50:03.241Z,61.00
2022-12-03T13:52:34.252Z,59.50
2022-12-03T13:55:03.545Z,58.80
2022-12-03T13:57:30.127Z,58.70
2022-12-03T13:59:57.074Z,58.80
2022-12-03T14:02:23.858Z,58.90
2022-12-03T14:04:54.106Z,59.10
2022-12-03T14:07:23.519Z,59.10
2022-12-03T14:09:50.115Z,59.80
2022-12-03T14:12:25.621Z,59.40
2022-12-03T14:14:52.693Z,60.00
2022-12-03T14:17:19.332Z,59.40
2022-12-03T14:19:46.237Z,59.40
2022-12-03T14:22:12.835Z,59.50
2022-12-03T14:24:42.213Z,59.50
2022-12-03T14:27:08.845Z,59.50
2022-12-03T14:29:35.448Z,59.50
2022-12-03T14:32:02.295Z,59.60
2022-12-03T14:34:28.975Z,59.50
2022-12-03T14:36:55.576Z,59.60
2022-12-03T14:39:22.248Z,59.60
2022-12-03T14:42:07.724Z,59.60
2022-12-03T14:44:34.347Z,59.70
2022-12-03T14:47:01.019Z,59.80
2022-12-03T14:49:29.902Z,59.70
2022-12-03T14:51:56.556Z,59.60
2022-12-03T14:54:23.147Z,59.70
2022-12-03T14:56:49.751Z,59.90
2022-12-03T14:59:16.487Z,59.40
2022-12-03T15:01:43.106Z,59.40
2022-12-03T15:04:09.879Z,59.90
2022-12-03T15:06:36.575Z,60.00
2022-12-03T15:09:03.938Z,60.00
2022-12-03T15:11:30.518Z,59.40
2022-12-03T15:13:57.167Z,60.00
2022-12-03T15:16:23.823Z,59.80
2022-12-03T15:18:50.562Z,60.00
2022-12-03T15:21:17.245Z,60.00
2022-12-03T15:23:43.923Z,59.90
2022-12-03T15:26:10.523Z,59.90
2022-12-03T15:28:37.118Z,60.00
2022-12-03T15:31:03.841Z,59.90
2022-12-03T15:33:30.551Z,60.70
2022-12-03T15:35:57.593Z,60.00
2022-12-03T15:38:24.276Z,60.00
2022-12-03T15:40:51.134Z,60.00
2022-12-03T15:43:17.829Z,60.00
2022-12-03T15:45:44.580Z,60.20
2022-12-03T15:48:13.426Z,60.10
2022-12-03T15:50:40.888Z,60.20
2022-12-03T15:53:07.757Z,60.30
2022-12-03T15:55:34.444Z,60.30
2022-12-03T15:58:01.039Z,60.40
2022-12-03T16:00:27.627Z,60.50
2022-12-03T16:02:54.241Z,60.60
2022-12-03T16:05:21.028Z,60.70
2022-12-03T16:07:47.640Z,60.50
2022-12-03T16:10:16.585Z,60.70
2022-12-03T16:12:43.222Z,60.70
2022-12-03T16:15:10.013Z,60.70
2022-12-03T16:17:36.594Z,60.70
2022-12-03T16:20:03.525Z,60.70
2022-12-03T16:22:30.165Z,60.70
2022-12-03T16:24:56.763Z,60.80
2022-12-03T16:27:25.837Z,60.90
2022-12-03T16:29:53.181Z,61.10
2022-12-03T16:32:20.079Z,61.00
2022-12-03T16:34:46.730Z,61.00
2022-12-03T16:37:13.433Z,61.00
2022-12-03T16:39:40.097Z,61.00
2022-12-03T16:42:10.426Z,61.10
2022-12-03T16:45:14.675Z,61.10
2022-12-03T16:47:41.255Z,61.20
2022-12-03T16:50:13.003Z,61.10
2022-12-03T16:52:47.059Z,61.10
2022-12-03T16:55:13.782Z,61.10
2022-12-03T16:57:40.344Z,61.10
2022-12-03T17:00:07.715Z,61.50
2022-12-03T17:02:34.426Z,61.20
2022-12-03T17:05:01.125Z,61.30
2022-12-03T17:07:27.962Z,61.60
2022-12-03T17:09:54.854Z,61.20
2022-12-03T17:12:21.636Z,61.20
2022-12-03T17:14:48.226Z,61.30
2022-12-03T17:17:14.809Z,61.30
2022-12-03T17:19:41.400Z,61.20
2022-12-03T17:22:08.000Z,61.10
2022-12-03T17:24:34.672Z,61.10
2022-12-03T17:27:01.266Z,61.10
2022-12-03T17:29:27.843Z,61.10
2022-12-03T17:31:54.491Z,61.20
2022-12-03T17:34:21.081Z,61.30
2022-12-03T17:36:47.644Z,61.30
2022-12-03T17:39:14.242Z,61.30
2022-12-03T17:41:40.827Z,61.40
2022-12-03T17:44:10.337Z,61.30
2022-12-03T17:46:38.180Z,61.30
2022-12-03T17:49:05.430Z,60.90
2022-12-03T17:51:32.062Z,61.30
2022-12-03T17:53:58.674Z,61.50
2022-12-03T17:56:25.502Z,61.50
2022-12-03T17:58:52.129Z,61.50
2022-12-03T18:01:18.719Z,61.50
2022-12-03T18:03:45.386Z,61.50
2022-12-03T18:06:12.062Z,61.50
2022-12-03T18:08:38.655Z,61.50
2022-12-03T18:11:05.439Z,61.50
2022-12-03T18:13:32.005Z,61.50
2022-12-03T18:15:58.721Z,61.70
2022-12-03T18:18:25.399Z,61.60
2022-12-03T18:20:53.243Z,61.30
2022-12-03T18:23:20.002Z,61.90
2022-12-03T18:25:46.599Z,61.80
2022-12-03T18:28:13.197Z,61.80
2022-12-03T18:30:39.887Z,61.10
2022-12-03T18:33:06.731Z,61.70
2022-12-03T18:35:33.504Z,61.60
2022-12-03T18:38:00.267Z,61.70
2022-12-03T18:40:27.167Z,61.60
2022-12-03T18:42:55.175Z,61.60
2022-12-03T18:45:21.763Z,61.60
2022-12-03T18:47:48.467Z,61.50
2022-12-03T18:50:15.108Z,61.50
2022-12-03T18:52:41.739Z,61.50
2022-12-03T18:55:13.763Z,61.50
2022-12-03T18:57:40.339Z,61.40
2022-12-03T19:00:13.262Z,61.40
2022-12-03T19:05:27.452Z,61.40
2022-12-03T19:07:55.532Z,61.30
2022-12-03T19:10:22.728Z,60.60
2022-12-03T19:12:49.794Z,61.30
2022-12-03T19:15:17.159Z,61.20
2022-12-03T19:17:49.099Z,61.10
2022-12-03T19:20:16.011Z,61.30
2022-12-03T19:22:42.606Z,61.10
2022-12-03T19:25:09.398Z,61.20
2022-12-03T19:27:35.994Z,61.00
2022-12-03T19:30:02.664Z,60.50
2022-12-03T19:32:29.293Z,61.10
2022-12-03T19:34:55.927Z,61.00
2022-12-03T19:37:22.506Z,61.10
2022-12-03T19:39:53.162Z,61.10
2022-12-03T19:42:19.936Z,61.20
2022-12-03T19:44:46.560Z,61.20
2022-12-03T19:47:13.162Z,61.30
2022-12-03T19:49:39.757Z,61.10
2022-12-03T19:52:06.347Z,61.90
2022-12-03T19:54:32.923Z,61.20
2022-12-03T19:56:59.806Z,61.20
2022-12-03T19:59:26.458Z,61.30
2022-12-03T20:01:53.324Z,61.20
2022-12-03T20:04:20.153Z,61.30
2022-12-03T20:06:47.464Z,61.20
2022-12-03T20:09:17.539Z,61.20
2022-12-03T20:11:45.618Z,61.30
2022-12-03T20:14:15.262Z,61.30
2022-12-03T20:16:42.813Z,61.30
2022-12-03T20:19:12.500Z,61.30
2022-12-03T20:21:40.418Z,61.30
2022-12-03T20:24:08.615Z,61.40
2022-12-03T20:26:35.277Z,61.50
2022-12-03T20:29:01.949Z,61.40
2022-12-03T20:31:30.919Z,61.40
2022-12-03T20:34:00.132Z,61.40
2022-12-03T20:36:28.284Z,61.50
2022-12-03T20:39:00.414Z,61.50
2022-12-03T20:41:27.552Z,61.50
2022-12-03T20:43:54.151Z,61.50
2022-12-03T20:46:29.363Z,61.50
2022-12-03T20:48:57.146Z,61.50
2022-12-03T20:51:26.368Z,61.50
2022-12-03T20:53:53.439Z,61.50
2022-12-03T20:56:26.074Z,61.50
2022-12-03T20:58:53.613Z,61.50
2022-12-03T21:01:26.268Z,61.50
2022-12-03T21:03:54.874Z,61.50
2022-12-03T21:06:22.990Z,61.50
2022-12-03T21:08:49.615Z,61.60
2022-12-03T21:11:21.435Z,61.60
2022-12-03T21:13:48.156Z,61.60
2022-12-03T21:16:18.330Z,61.60
2022-12-03T21:18:45.868Z,61.60
2022-12-03T21:21:14.819Z,61.60
2022-12-03T21:23:42.661Z,62.30
2022-12-03T21:26:16.357Z,61.60
2022-12-03T21:28:45.017Z,61.60
2022-12-03T21:31:14.389Z,61.60
2022-12-03T21:33:41.013Z,61.60
2022-12-03T21:36:10.064Z,61.60
2022-12-03T21:38:37.920Z,61.50
2022-12-03T21:41:05.128Z,61.50
2022-12-03T21:43:32.462Z,61.50
2022-12-03T21:45:59.130Z,61.50
2022-12-03T21:48:25.963Z,61.40
2022-12-03T21:51:04.613Z,61.40
2022-12-03T21:53:33.239Z,61.40
2022-12-03T21:56:03.485Z,61.40
2022-12-03T21:58:32.431Z,61.40
2022-12-03T22:00:59.068Z,61.40
2022-12-03T22:03:25.778Z,61.30
2022-12-03T22:05:52.448Z,61.30
2022-12-03T22:08:19.212Z,61.30
2022-12-03T22:10:45.848Z,61.30
2022-12-03T22:13:12.505Z,61.30
2022-12-03T22:15:39.933Z,61.30
2022-12-03T22:18:06.839Z,61.20
2022-12-03T22:20:33.467Z,61.20
2022-12-03T22:23:00.081Z,61.20
2022-12-03T22:25:26.708Z,61.10
2022-12-03T22:27:53.281Z,61.10
2022-12-03T22:30:19.923Z,61.10
2022-12-03T22:32:46.657Z,61.00
2022-12-03T22:35:13.323Z,61.00
2022-12-03T22:37:39.948Z,61.00
2022-12-03T22:40:07.045Z,61.00
2022-12-03T22:42:33.661Z,61.00
2022-12-03T22:45:00.269Z,61.00
2022-12-03T22:47:26.874Z,61.10
2022-12-03T22:49:53.653Z,61.00
2022-12-03T22:52:20.507Z,61.00
2022-12-03T22:54:47.092Z,61.00
2022-12-03T22:57:13.715Z,60.90
2022-12-03T22:59:40.364Z,60.90
2022-12-03T23:02:06.958Z,60.90
2022-12-03T23:04:33.533Z,60.90
2022-12-03T23:07:00.166Z,60.80
2022-12-03T23:09:26.879Z,60.80
2022-12-03T23:11:53.565Z,60.70
2022-12-03T23:14:20.160Z,60.60
2022-12-03T23:16:46.745Z,60.60
2022-12-03T23:19:13.703Z,60.00
2022-12-03T23:21:40.406Z,60.60
2022-12-03T23:24:07.707Z,60.50
2022-12-03T23:26:36.564Z,60.50
2022-12-03T23:29:05.195Z,60.60
2022-12-03T23:31:33.201Z,60.50
2022-12-03T23:34:00.310Z,60.50
2022-12-03T23:36:29.488Z,60.50
2022-12-03T23:38:56.084Z,60.50
2022-12-03T23:41:23.927Z,60.40
2022-12-03T23:43:50.615Z,60.40
2022-12-03T23:46:23.580Z,60.40
2022-12-03T23:48:51.083Z,60.30
2022-12-03T23:51:20.670Z,59.80
2022-12-03T23:53:48.097Z,60.30
2022-12-03T23:56:18.766Z,60.20
2022-12-03T23:58:46.310Z,61.00
